createdAt,value
2019-03-31T00:01:07.517Z,24.43
2019-03-31T00:03:28.726Z,25.10
2019-03-31T00:05:58.619Z,22.20
2019-03-31T00:08:28.506Z,24.60
2019-03-31T00:11:00.655Z,26.33
2019-03-31T00:13:30.006Z,24.53
2019-03-31T00:16:00.181Z,26.10
2019-03-31T00:18:30.050Z,24.73
2019-03-31T00:20:59.944Z,23.73
2019-03-31T00:23:29.798Z,26.10
2019-03-31T00:25:59.698Z,22.50
2019-03-31T00:28:29.603Z,23.10
2019-03-31T00:30:59.506Z,23.33
2019-03-31T00:33:29.395Z,21.33
2019-03-31T00:35:59.287Z,24.50
2019-03-31T00:38:29.159Z,21.47
2019-03-31T00:40:59.073Z,23.90
2019-03-31T00:43:29.948Z,20.40
2019-03-31T00:45:59.841Z,24.27
2019-03-31T00:48:29.879Z,23.70
2019-03-31T00:50:59.771Z,24.60
2019-03-31T00:53:29.655Z,20.83
2019-03-31T00:55:59.586Z,22.10
2019-03-31T00:58:29.482Z,20.03
2019-03-31T01:01:19.750Z,20.30
2019-03-31T01:03:49.856Z,19.23
2019-03-31T01:06:19.912Z,23.17
2019-03-31T01:08:49.816Z,16.73
2019-03-31T01:11:25.841Z,18.20
2019-03-31T01:13:56.028Z,19.67
2019-03-31T01:16:27.257Z,19.97
2019-03-31T01:18:57.144Z,19.83
2019-03-31T01:21:27.054Z,23.20
2019-03-31T01:23:57.026Z,18.97
2019-03-31T01:26:26.988Z,24.23
2019-03-31T01:28:57.070Z,25.60
2019-03-31T01:31:28.469Z,24.53
2019-03-31T01:33:58.699Z,26.00
2019-03-31T01:36:28.699Z,24.97
2019-03-31T01:38:58.632Z,21.03
2019-03-31T01:41:28.547Z,21.97
2019-03-31T01:43:58.553Z,22.17
2019-03-31T01:46:29.160Z,20.97
2019-03-31T01:48:59.032Z,21.27
2019-03-31T01:51:28.931Z,23.30
2019-03-31T01:53:58.826Z,26.23
2019-03-31T01:56:28.739Z,27.03
2019-03-31T01:58:59.423Z,27.17
2019-03-31T02:01:29.375Z,29.17
2019-03-31T02:03:59.516Z,25.33
2019-03-31T02:06:29.419Z,26.90
2019-03-31T02:08:59.347Z,31.53
2019-03-31T02:11:29.243Z,29.90
2019-03-31T02:13:59.194Z,28.50
2019-03-31T02:16:29.104Z,29.17
2019-03-31T02:18:59.001Z,28.53
2019-03-31T02:21:28.903Z,30.17
2019-03-31T02:23:58.796Z,26.63
2019-03-31T02:26:28.708Z,28.73
2019-03-31T02:28:58.642Z,30.30
2019-03-31T02:31:28.620Z,28.40
2019-03-31T02:33:58.553Z,31.80
2019-03-31T02:36:28.441Z,30.43
2019-03-31T02:38:58.339Z,30.47
2019-03-31T02:41:28.337Z,28.27
2019-03-31T02:43:58.250Z,25.53
2019-03-31T02:46:28.191Z,29.10
2019-03-31T02:48:58.073Z,29.97
2019-03-31T02:51:28.000Z,35.57
2019-03-31T02:53:58.321Z,29.63
2019-03-31T02:56:28.439Z,29.23
2019-03-31T02:59:00.818Z,30.23
2019-03-31T03:01:32.570Z,26.23
2019-03-31T03:04:07.772Z,25.57
2019-03-31T03:06:36.959Z,34.00
2019-03-31T03:09:08.116Z,30.87
2019-03-31T03:11:38.910Z,32.07
2019-03-31T03:14:11.285Z,30.37
2019-03-31T03:16:41.263Z,26.73
2019-03-31T03:19:11.256Z,27.07
2019-03-31T03:21:41.181Z,26.47
2019-03-31T03:24:11.133Z,24.30
2019-03-31T03:26:41.031Z,27.33
2019-03-31T03:29:10.902Z,28.10
2019-03-31T03:31:40.813Z,28.07
2019-03-31T03:34:10.718Z,24.93
2019-03-31T03:36:43.182Z,27.23
2019-03-31T03:39:12.238Z,26.40
2019-03-31T03:41:42.172Z,27.87
2019-03-31T03:44:12.093Z,28.83
2019-03-31T03:46:42.033Z,25.73
2019-03-31T03:49:12.177Z,25.40
2019-03-31T03:51:42.355Z,29.27
2019-03-31T03:54:12.251Z,30.00
2019-03-31T03:56:42.155Z,28.93
2019-03-31T03:59:12.033Z,32.53
2019-03-31T04:01:41.913Z,26.00
2019-03-31T04:04:11.873Z,31.23
2019-03-31T04:06:41.724Z,31.93
2019-03-31T04:09:11.621Z,30.87
2019-03-31T04:11:41.486Z,29.53
2019-03-31T04:14:11.396Z,28.77
2019-03-31T04:16:41.259Z,27.93
2019-03-31T04:19:11.158Z,28.30
2019-03-31T04:21:41.092Z,28.60
2019-03-31T04:24:10.988Z,29.83
2019-03-31T04:26:40.881Z,29.67
2019-03-31T04:29:10.769Z,31.33
2019-03-31T04:31:40.710Z,33.27
2019-03-31T04:34:10.627Z,32.10
2019-03-31T04:36:40.506Z,31.47
2019-03-31T04:39:10.407Z,33.53
2019-03-31T04:41:40.361Z,35.10
2019-03-31T04:44:10.248Z,29.47
2019-03-31T04:46:40.194Z,29.77
2019-03-31T04:49:10.068Z,31.80
2019-03-31T04:51:40.010Z,30.10
2019-03-31T04:54:09.933Z,31.97
2019-03-31T04:56:39.845Z,31.07
2019-03-31T04:59:09.762Z,32.07
2019-03-31T05:01:39.662Z,36.70
2019-03-31T05:04:09.554Z,29.73
2019-03-31T05:06:39.504Z,31.67
2019-03-31T05:09:09.340Z,31.97
2019-03-31T05:11:39.206Z,29.50
2019-03-31T05:14:09.151Z,29.47
2019-03-31T05:16:39.053Z,30.30
2019-03-31T05:19:08.989Z,29.67
2019-03-31T05:21:38.909Z,34.57
2019-03-31T05:24:08.942Z,29.70
2019-03-31T05:26:38.905Z,31.40
2019-03-31T05:29:08.795Z,35.57
2019-03-31T05:31:38.746Z,38.53
2019-03-31T05:34:19.033Z,38.57
2019-03-31T05:36:40.265Z,35.97
2019-03-31T05:39:10.168Z,42.23
2019-03-31T05:41:40.119Z,46.80
2019-03-31T05:44:10.032Z,37.80
2019-03-31T05:46:39.924Z,40.30
2019-03-31T05:49:09.811Z,38.87
2019-03-31T05:51:39.785Z,38.30
2019-03-31T05:54:09.702Z,40.43
2019-03-31T05:56:39.657Z,41.33
2019-03-31T05:59:09.563Z,40.73
2019-03-31T06:01:39.507Z,37.17
2019-03-31T06:04:09.398Z,40.50
2019-03-31T06:06:39.263Z,40.13
2019-03-31T06:09:09.218Z,41.53
2019-03-31T06:11:39.863Z,44.00
2019-03-31T06:14:09.848Z,37.83
2019-03-31T06:16:39.768Z,41.53
2019-03-31T06:19:09.671Z,38.23
2019-03-31T06:21:39.590Z,40.97
2019-03-31T06:24:09.550Z,42.73
2019-03-31T06:26:39.541Z,39.53
2019-03-31T06:29:09.549Z,44.83
2019-03-31T06:31:39.461Z,42.10
2019-03-31T06:34:09.379Z,41.73
2019-03-31T06:36:39.288Z,38.10
2019-03-31T06:39:09.187Z,35.37
2019-03-31T06:41:39.121Z,35.33
2019-03-31T06:44:09.030Z,34.33
2019-03-31T06:46:38.998Z,31.47
2019-03-31T06:49:09.001Z,36.37
2019-03-31T06:51:38.889Z,32.77
2019-03-31T06:54:08.820Z,33.33
2019-03-31T06:56:38.686Z,31.90
2019-03-31T06:59:08.592Z,29.80
2019-03-31T07:01:38.518Z,28.33
2019-03-31T07:04:08.417Z,23.97
2019-03-31T07:06:38.399Z,24.37
2019-03-31T07:09:08.399Z,21.80
2019-03-31T07:11:38.363Z,22.20
2019-03-31T07:14:08.365Z,26.50
2019-03-31T07:16:38.428Z,23.57
2019-03-31T07:19:08.336Z,21.43
2019-03-31T07:21:38.273Z,24.20
2019-03-31T07:24:08.311Z,21.60
2019-03-31T07:26:38.245Z,21.07
2019-03-31T07:29:08.152Z,23.63
2019-03-31T07:31:38.292Z,19.43
2019-03-31T07:34:08.306Z,18.37
2019-03-31T07:36:38.388Z,18.93
2019-03-31T07:39:08.705Z,19.97
2019-03-31T07:41:38.816Z,15.50
2019-03-31T07:44:08.738Z,15.93
2019-03-31T07:46:38.643Z,18.50
2019-03-31T07:49:08.580Z,22.57
2019-03-31T07:51:38.560Z,15.97
2019-03-31T07:54:08.449Z,17.43
2019-03-31T07:56:38.397Z,21.13
2019-03-31T07:59:08.423Z,23.60
2019-03-31T08:01:38.352Z,26.47
2019-03-31T08:04:08.404Z,17.70
2019-03-31T08:06:38.345Z,17.13
2019-03-31T08:09:08.764Z,14.70
2019-03-31T08:11:38.654Z,16.80
2019-03-31T08:14:08.542Z,14.03
2019-03-31T08:16:38.421Z,12.73
2019-03-31T08:19:08.335Z,15.97
2019-03-31T08:21:38.225Z,12.53
2019-03-31T08:24:08.123Z,12.67
2019-03-31T08:26:38.029Z,13.40
2019-03-31T08:29:07.953Z,13.03
2019-03-31T08:31:37.875Z,11.27
2019-03-31T08:34:07.772Z,10.83
2019-03-31T08:36:37.652Z,11.17
2019-03-31T08:39:09.817Z,12.20
2019-03-31T08:41:39.720Z,10.97
2019-03-31T08:44:09.613Z,12.27
2019-03-31T08:46:39.541Z,16.53
2019-03-31T08:49:09.450Z,12.47
2019-03-31T08:51:39.380Z,11.03
2019-03-31T08:54:09.299Z,13.13
2019-03-31T08:56:39.199Z,12.20
2019-03-31T08:59:09.106Z,9.87
2019-03-31T09:01:38.981Z,12.23
2019-03-31T09:04:08.898Z,9.40
2019-03-31T09:06:38.851Z,9.73
2019-03-31T09:09:09.731Z,11.20
2019-03-31T09:11:39.635Z,15.47
2019-03-31T09:14:09.601Z,11.47
2019-03-31T09:16:39.497Z,11.30
2019-03-31T09:19:09.405Z,11.67
2019-03-31T09:21:39.317Z,9.00
2019-03-31T09:24:09.193Z,9.33
2019-03-31T09:26:39.061Z,12.13
2019-03-31T09:29:08.970Z,10.03
2019-03-31T09:31:38.868Z,10.43
2019-03-31T09:34:08.757Z,11.93
2019-03-31T09:36:38.650Z,9.70
2019-03-31T09:39:08.580Z,11.90
2019-03-31T09:41:38.563Z,13.90
2019-03-31T09:44:08.516Z,9.77
2019-03-31T09:46:38.465Z,10.57
2019-03-31T09:49:08.334Z,10.17
2019-03-31T09:51:38.233Z,12.07
2019-03-31T09:54:08.120Z,10.50
2019-03-31T09:56:37.999Z,10.40
2019-03-31T09:59:07.912Z,9.13
2019-03-31T10:01:37.902Z,12.87
2019-03-31T10:04:07.832Z,11.77
2019-03-31T10:06:37.851Z,12.53
2019-03-31T10:09:08.622Z,11.37
2019-03-31T10:11:38.585Z,11.63
2019-03-31T10:14:08.445Z,11.93
2019-03-31T10:16:38.343Z,12.37
2019-03-31T10:19:08.227Z,11.40
2019-03-31T10:21:38.084Z,11.43
2019-03-31T10:24:07.980Z,10.67
2019-03-31T10:26:37.870Z,11.83
2019-03-31T10:29:07.808Z,9.83
2019-03-31T10:31:37.680Z,8.50
2019-03-31T10:34:07.542Z,10.87
2019-03-31T10:36:44.471Z,8.80
2019-03-31T10:39:10.103Z,13.03
2019-03-31T10:41:40.232Z,9.80
2019-03-31T10:44:10.157Z,12.75
2019-03-31T10:46:40.057Z,9.40
2019-03-31T10:49:09.949Z,12.85
2019-03-31T10:51:39.882Z,11.73
2019-03-31T10:54:09.830Z,10.20
2019-03-31T10:56:39.737Z,11.85
2019-03-31T10:59:09.649Z,11.97
2019-03-31T11:01:39.537Z,10.48
2019-03-31T11:04:09.439Z,11.12
2019-03-31T11:06:39.310Z,10.60
2019-03-31T11:09:09.823Z,11.22
2019-03-31T11:11:39.707Z,12.43
2019-03-31T11:14:09.617Z,13.72
2019-03-31T11:16:39.515Z,12.23
2019-03-31T11:19:09.467Z,10.98
2019-03-31T11:21:57.232Z,12.88
2019-03-31T11:24:27.155Z,9.05
2019-03-31T11:26:57.071Z,11.95
2019-03-31T11:29:26.989Z,9.83
2019-03-31T11:31:56.900Z,9.63
2019-03-31T11:34:26.807Z,9.48
2019-03-31T11:36:56.746Z,10.40
2019-03-31T11:39:26.655Z,9.45
2019-03-31T11:41:56.629Z,9.28
2019-03-31T11:44:27.781Z,8.25
2019-03-31T11:46:57.927Z,8.38
2019-03-31T11:49:27.817Z,9.53
2019-03-31T11:51:57.767Z,8.20
2019-03-31T11:54:27.730Z,9.53
2019-03-31T11:56:57.655Z,7.80
2019-03-31T11:59:27.597Z,8.48
2019-03-31T12:01:57.544Z,8.20
2019-03-31T12:04:27.478Z,8.65
2019-03-31T12:06:58.207Z,12.80
2019-03-31T12:09:28.140Z,9.50
2019-03-31T12:11:58.087Z,7.50
2019-03-31T12:14:28.002Z,8.93
2019-03-31T12:16:57.936Z,7.80
2019-03-31T12:19:28.875Z,8.85
2019-03-31T12:21:58.812Z,8.80
2019-03-31T12:24:28.894Z,9.30
2019-03-31T12:26:58.859Z,6.85
2019-03-31T12:29:28.939Z,14.55
2019-03-31T12:31:59.049Z,7.35
2019-03-31T12:34:28.991Z,8.13
2019-03-31T12:36:58.916Z,7.28
2019-03-31T12:39:28.943Z,10.20
2019-03-31T12:41:58.905Z,7.67
2019-03-31T12:44:28.805Z,6.22
2019-03-31T12:46:58.858Z,9.30
2019-03-31T12:49:28.803Z,6.97
2019-03-31T12:51:58.785Z,5.53
2019-03-31T12:54:28.701Z,7.05
2019-03-31T12:56:58.656Z,7.78
2019-03-31T12:59:28.591Z,6.67
2019-03-31T13:01:58.487Z,7.12
2019-03-31T13:04:28.396Z,5.70
2019-03-31T13:06:58.328Z,5.53
2019-03-31T13:09:28.231Z,6.55
2019-03-31T13:11:58.179Z,6.37
2019-03-31T13:14:28.157Z,8.15
2019-03-31T13:17:01.353Z,6.62
2019-03-31T13:19:29.742Z,7.37
2019-03-31T13:21:59.694Z,6.15
2019-03-31T13:24:29.593Z,5.50
2019-03-31T13:26:59.818Z,6.00
2019-03-31T13:29:29.733Z,7.40
2019-03-31T13:31:59.649Z,7.30
2019-03-31T13:34:32.457Z,6.17
2019-03-31T13:37:02.548Z,10.38
2019-03-31T13:39:32.694Z,7.65
2019-03-31T13:42:02.737Z,7.35
2019-03-31T13:44:32.665Z,10.28
2019-03-31T13:47:02.601Z,7.50
2019-03-31T13:49:32.600Z,7.85
2019-03-31T13:52:02.550Z,11.38
2019-03-31T13:54:32.464Z,7.65
2019-03-31T13:57:06.305Z,6.72
2019-03-31T13:59:36.409Z,6.17
2019-03-31T14:02:06.356Z,6.95
2019-03-31T14:04:50.690Z,6.33
2019-03-31T14:07:07.984Z,7.75
2019-03-31T14:09:37.954Z,6.90
2019-03-31T14:12:07.875Z,7.78
2019-03-31T14:14:37.873Z,7.85
2019-03-31T14:17:07.861Z,6.03
2019-03-31T14:19:37.768Z,6.40
2019-03-31T14:22:07.708Z,5.25
2019-03-31T14:24:37.653Z,7.50
2019-03-31T14:27:07.590Z,10.75
2019-03-31T14:29:44.578Z,6.67
2019-03-31T14:32:14.537Z,6.80
2019-03-31T14:34:44.486Z,9.33
2019-03-31T14:37:14.388Z,8.48
2019-03-31T14:39:44.430Z,7.28
2019-03-31T14:42:14.325Z,7.35
2019-03-31T14:44:44.273Z,8.10
2019-03-31T14:47:14.233Z,7.58
2019-03-31T14:49:44.125Z,7.05
2019-03-31T14:52:26.671Z,10.08
2019-03-31T14:54:45.724Z,6.17
2019-03-31T14:57:15.633Z,8.33
2019-03-31T14:59:45.564Z,7.30
2019-03-31T15:02:15.479Z,6.62
2019-03-31T15:04:45.428Z,7.33
2019-03-31T15:07:15.317Z,8.10
2019-03-31T15:09:45.318Z,7.92
2019-03-31T15:12:15.234Z,6.92
2019-03-31T15:14:45.138Z,10.08
2019-03-31T15:17:15.067Z,8.13
2019-03-31T15:19:44.980Z,9.05
2019-03-31T15:22:14.940Z,9.38
2019-03-31T15:24:44.890Z,8.50
2019-03-31T15:27:14.774Z,8.65
2019-03-31T15:29:44.765Z,8.73
2019-03-31T15:32:14.649Z,8.28
2019-03-31T15:34:44.562Z,8.73
2019-03-31T15:37:14.537Z,9.93
2019-03-31T15:39:44.643Z,8.38
2019-03-31T15:42:14.595Z,8.33
2019-03-31T15:44:44.523Z,8.93
2019-03-31T15:47:14.433Z,9.40
2019-03-31T15:49:44.366Z,9.80
2019-03-31T15:52:14.271Z,10.30
2019-03-31T15:54:44.249Z,10.15
2019-03-31T15:57:14.161Z,9.70
2019-03-31T15:59:51.208Z,10.27
2019-03-31T16:02:22.678Z,8.55
2019-03-31T16:04:52.565Z,9.90
2019-03-31T16:07:22.487Z,9.50
2019-03-31T16:09:51.896Z,10.00
2019-03-31T16:12:21.259Z,11.63
2019-03-31T16:14:50.652Z,10.97
2019-03-31T16:17:20.039Z,10.47
2019-03-31T16:19:49.403Z,9.87
2019-03-31T16:22:18.778Z,11.77
2019-03-31T16:24:50.148Z,9.53
2019-03-31T16:27:19.506Z,10.60
2019-03-31T16:29:48.893Z,9.87
2019-03-31T16:32:18.263Z,9.80
2019-03-31T16:34:47.656Z,10.13
2019-03-31T16:37:17.120Z,11.07
2019-03-31T16:39:46.469Z,11.13
2019-03-31T16:42:15.886Z,9.80
2019-03-31T16:44:57.507Z,9.87
2019-03-31T16:47:16.405Z,13.50
2019-03-31T16:49:45.774Z,9.87
2019-03-31T16:52:15.294Z,10.47
2019-03-31T16:54:44.689Z,10.93
2019-03-31T16:57:14.063Z,11.33
2019-03-31T16:59:43.411Z,10.67
2019-03-31T17:02:12.865Z,10.60
2019-03-31T17:04:42.268Z,10.57
2019-03-31T17:07:11.687Z,10.60
2019-03-31T17:09:51.262Z,15.73
2019-03-31T17:12:13.105Z,10.60
2019-03-31T17:14:42.524Z,10.40
2019-03-31T17:17:11.886Z,10.27
2019-03-31T17:19:41.330Z,12.40
2019-03-31T17:22:10.737Z,11.23
2019-03-31T17:24:40.106Z,10.27
2019-03-31T17:27:09.587Z,11.53
2019-03-31T17:29:39.880Z,12.53
2019-03-31T17:32:09.387Z,9.80
2019-03-31T17:34:38.751Z,10.77
2019-03-31T17:37:08.172Z,8.83
2019-03-31T17:39:37.982Z,11.33
2019-03-31T17:42:07.394Z,11.53
2019-03-31T17:44:36.786Z,10.83
2019-03-31T17:47:06.203Z,12.10
2019-03-31T17:49:35.709Z,10.20
2019-03-31T17:52:05.100Z,11.13
2019-03-31T17:54:34.518Z,11.50
2019-03-31T17:57:03.987Z,10.27
2019-03-31T17:59:33.568Z,12.77
2019-03-31T18:02:02.930Z,10.73
2019-03-31T18:04:32.359Z,10.33
2019-03-31T18:07:01.834Z,10.73
2019-03-31T18:09:31.238Z,10.60
2019-03-31T18:12:04.142Z,11.33
2019-03-31T18:14:33.534Z,11.73
2019-03-31T18:17:03.019Z,9.73
2019-03-31T18:19:33.456Z,12.57
2019-03-31T18:22:15.911Z,13.50
2019-03-31T18:24:34.400Z,16.03
2019-03-31T18:27:03.770Z,15.37
2019-03-31T18:29:33.300Z,13.47
2019-03-31T18:32:03.802Z,13.50
2019-03-31T18:34:33.215Z,15.60
2019-03-31T18:37:06.767Z,16.90
2019-03-31T18:39:36.310Z,14.17
2019-03-31T18:42:05.817Z,15.87
2019-03-31T18:44:35.232Z,16.97
2019-03-31T18:47:04.715Z,14.57
2019-03-31T18:49:35.855Z,19.73
2019-03-31T18:52:05.322Z,20.77
2019-03-31T18:54:59.889Z,24.77
2019-03-31T18:57:47.339Z,19.20
2019-03-31T19:00:34.619Z,27.07
2019-03-31T19:03:21.857Z,18.43
2019-03-31T19:06:28.609Z,17.20
2019-03-31T19:09:17.719Z,19.03
2019-03-31T19:12:05.525Z,29.23
2019-03-31T19:14:52.466Z,23.87
2019-03-31T19:17:41.028Z,23.63
2019-03-31T19:20:41.629Z,23.73
2019-03-31T19:23:28.902Z,22.23
2019-03-31T19:26:47.406Z,18.80
2019-03-31T19:29:12.117Z,18.50
2019-03-31T19:32:03.501Z,19.10
2019-03-31T19:34:50.529Z,20.00
2019-03-31T19:37:29.157Z,20.03
2019-03-31T19:40:17.844Z,17.80
2019-03-31T19:43:15.206Z,19.00
2019-03-31T19:46:06.707Z,19.70
2019-03-31T19:48:52.922Z,18.13
2019-03-31T19:51:41.222Z,28.97
2019-03-31T19:54:35.785Z,27.43
2019-03-31T19:57:33.558Z,20.87
2019-03-31T20:00:24.696Z,21.73
2019-03-31T20:03:21.939Z,23.57
2019-03-31T20:06:13.258Z,20.50
2019-03-31T20:08:59.807Z,20.20
2019-03-31T20:11:34.879Z,18.50
2019-03-31T20:14:26.305Z,16.43
2019-03-31T20:17:05.395Z,16.27
2019-03-31T20:19:56.723Z,19.23
2019-03-31T20:22:51.096Z,15.63
2019-03-31T20:25:39.279Z,16.53
2019-03-31T20:28:24.126Z,16.70
2019-03-31T20:31:00.164Z,14.20
2019-03-31T20:33:44.779Z,17.87
2019-03-31T20:36:50.996Z,18.27
2019-03-31T20:39:56.004Z,15.23
2019-03-31T20:42:23.419Z,13.73
2019-03-31T20:44:52.816Z,15.53
2019-03-31T20:47:22.210Z,17.57
2019-03-31T20:49:51.805Z,33.77
2019-03-31T20:52:21.203Z,22.23
2019-03-31T20:54:50.583Z,23.73
2019-03-31T20:57:19.990Z,25.43
2019-03-31T20:59:49.421Z,22.03
2019-03-31T21:02:18.957Z,23.60
2019-03-31T21:04:48.499Z,21.50
2019-03-31T21:07:17.977Z,22.57
2019-03-31T21:09:47.413Z,24.23
2019-03-31T21:12:16.833Z,20.77
2019-03-31T21:14:46.251Z,20.20
2019-03-31T21:17:15.835Z,28.37
2019-03-31T21:19:45.233Z,34.87
2019-03-31T21:22:14.647Z,25.27
2019-03-31T21:24:44.070Z,20.67
2019-03-31T21:27:13.526Z,24.47
2019-03-31T21:29:42.905Z,19.17
2019-03-31T21:32:12.348Z,20.90
2019-03-31T21:34:41.697Z,22.47
2019-03-31T21:37:11.055Z,19.70
2019-03-31T21:39:40.385Z,19.97
2019-03-31T21:42:09.773Z,19.30
2019-03-31T21:44:39.148Z,15.57
2019-03-31T21:47:08.570Z,19.00
2019-03-31T21:49:37.911Z,19.67
2019-03-31T21:52:07.267Z,18.90
2019-03-31T21:54:36.859Z,18.53
2019-03-31T21:57:06.293Z,17.53
2019-03-31T21:59:35.897Z,17.43
2019-03-31T22:02:05.304Z,16.77
2019-03-31T22:04:34.649Z,19.27
2019-03-31T22:07:04.122Z,16.97
2019-03-31T22:09:33.436Z,19.30
2019-03-31T22:12:02.809Z,17.73
2019-03-31T22:14:32.174Z,17.87
2019-03-31T22:17:01.544Z,18.57
2019-03-31T22:19:30.885Z,17.53
2019-03-31T22:22:00.289Z,17.70
2019-03-31T22:24:29.650Z,19.70
2019-03-31T22:26:59.002Z,20.47
2019-03-31T22:29:28.364Z,21.03
2019-03-31T22:31:57.713Z,24.57
2019-03-31T22:34:27.055Z,19.73
2019-03-31T22:36:56.425Z,25.73
2019-03-31T22:39:28.074Z,21.67
2019-03-31T22:41:57.460Z,25.83
2019-03-31T22:44:26.839Z,23.80
2019-03-31T22:46:56.189Z,23.00
2019-03-31T22:49:25.570Z,24.67
2019-03-31T22:51:56.603Z,28.80
2019-03-31T22:54:26.034Z,19.50
2019-03-31T22:56:55.376Z,23.03
2019-03-31T22:59:24.712Z,18.53
2019-03-31T23:01:54.057Z,25.83
2019-03-31T23:04:23.382Z,23.10
2019-03-31T23:06:52.762Z,29.93
2019-03-31T23:09:22.107Z,28.30
2019-03-31T23:11:51.528Z,25.77
2019-03-31T23:14:20.937Z,30.60
2019-03-31T23:16:50.358Z,31.00
2019-03-31T23:19:19.770Z,31.00
2019-03-31T23:21:49.093Z,26.53
2019-03-31T23:24:18.427Z,28.63
2019-03-31T23:26:47.761Z,33.17
2019-03-31T23:29:17.098Z,30.27
2019-03-31T23:31:46.468Z,28.97
2019-03-31T23:34:15.859Z,31.80
2019-03-31T23:36:45.263Z,30.87
2019-03-31T23:39:14.613Z,32.33
2019-03-31T23:41:43.966Z,31.43
2019-03-31T23:44:13.401Z,32.07
2019-03-31T23:46:42.883Z,33.73
2019-03-31T23:49:12.276Z,31.13
2019-03-31T23:51:41.591Z,29.43
2019-03-31T23:54:10.925Z,32.20
2019-03-31T23:56:40.265Z,33.70
2019-03-31T23:59:09.620Z,29.60
